Time;durP1;ratioP1;P1;durP2;ratioP2;P2;SDS_P1;SDS_P2;PMS_P1;PMS_P2;Temp;Humidity;BMP_temperature;BMP_pressure;BME280_temperature;BME280_humidity;BME280_pressure;Samples;Min_cycle;Max_cycle;Signal;HPM_P1;HPM_P2
2022/06/20 00:02:17;;;;;;;;;33.50;29.00;;;;;20.08;63.70;100760.56;5100248;27;45350;-71
2022/06/20 00:04:43;;;;;;;;;33.25;31.25;;;;;20.07;63.05;100752.56;5090439;27;45139;-72
2022/06/20 00:07:11;;;;;;;;;29.75;29.50;;;;;20.08;63.98;100776.81;5100978;27;45420;-72
2022/06/20 00:09:36;;;;;;;;;28.00;26.25;;;;;20.07;63.91;100766.09;5100022;27;45388;-72
2022/06/20 00:12:02;;;;;;;;;38.25;34.50;;;;;20.06;64.23;100762.50;5096575;27;48318;-71
2022/06/20 00:14:27;;;;;;;;;27.25;26.25;;;;;20.14;64.25;100775.50;5101015;27;45451;-72
2022/06/20 00:16:52;;;;;;;;;29.75;29.50;;;;;20.10;64.52;100777.56;5100745;27;46557;-72
2022/06/20 00:19:18;;;;;;;;;32.25;31.50;;;;;20.00;64.89;100771.09;5099258;27;45359;-72
2022/06/20 00:21:43;;;;;;;;;36.75;31.00;;;;;20.10;64.48;100780.28;5099743;27;45460;-72
2022/06/20 00:24:09;;;;;;;;;36.75;32.50;;;;;20.08;64.55;100763.28;5099668;27;45431;-72
2022/06/20 00:26:35;;;;;;;;;25.75;25.25;;;;;19.96;64.09;100729.81;5100721;27;45591;-72
2022/06/20 00:29:06;;;;;;;;;36.00;32.50;;;;;19.98;64.73;100724.28;5100744;27;45297;-72
2022/06/20 00:31:31;;;;;;;;;30.75;26.00;;;;;20.15;64.62;100744.72;5099896;27;45523;-72
2022/06/20 00:33:56;;;;;;;;;32.25;30.00;;;;;20.20;64.26;100739.84;5100332;27;45415;-72
2022/06/20 00:36:22;;;;;;;;;29.75;28.50;;;;;20.15;64.04;100715.78;5100642;27;45412;-72
2022/06/20 00:38:52;;;;;;;;;31.25;29.00;;;;;20.13;63.88;100717.75;5094304;27;45247;-72
2022/06/20 00:41:23;;;;;;;;;35.50;31.75;;;;;20.09;64.00;100693.69;5099971;27;45419;-72
2022/06/20 00:43:51;;;;;;;;;32.25;30.25;;;;;20.11;64.27;100699.84;5098792;27;45721;-72
2022/06/20 00:46:39;;;;;;;;;27.75;27.75;;;;;20.07;64.92;100692.94;5093035;27;46474;-72
2022/06/20 00:49:26;;;;;;;;;26.25;26.25;;;;;20.04;65.08;100691.31;5098560;27;45309;-72
2022/06/20 00:52:11;;;;;;;;;29.50;27.25;;;;;20.05;64.74;100703.03;5099853;27;45529;-71
2022/06/20 00:54:43;;;;;;;;;32.50;29.00;;;;;20.10;65.14;100707.13;5098628;27;45656;-72
2022/06/20 00:57:19;;;;;;;;;28.50;26.50;;;;;20.18;65.68;100741.81;5099993;27;45430;-71
2022/06/20 00:59:51;;;;;;;;;32.00;29.25;;;;;20.19;65.26;100757.06;5100936;27;45534;-71
2022/06/20 01:02:24;;;;;;;;;32.75;30.25;;;;;20.21;65.44;100765.09;5102890;27;45716;-71
2022/06/20 01:05:00;;;;;;;;;30.25;29.50;;;;;20.28;65.47;100775.38;5092955;27;45674;-72
2022/06/20 01:07:46;;;;;;;;;34.50;28.50;;;;;20.25;65.08;100791.88;5092081;27;45411;-72
2022/06/20 01:10:14;;;;;;;;;34.00;29.75;;;;;20.17;64.74;100781.56;5103836;27;45418;-72
2022/06/20 01:12:59;;;;;;;;;27.50;25.50;;;;;20.13;64.57;100782.78;5093422;27;46128;-72
2022/06/20 01:15:33;;;;;;;;;27.75;27.25;;;;;20.11;65.23;100787.44;5100915;27;45472;-72
2022/06/20 01:17:58;;;;;;;;;29.25;29.25;;;;;20.07;65.08;100785.94;5101793;27;45267;-72
2022/06/20 01:20:30;;;;;;;;;29.50;27.25;;;;;19.90;65.42;100768.16;5102083;27;45797;-71
2022/06/20 01:23:20;;;;;;;;;27.50;26.50;;;;;20.05;65.44;100792.44;5101805;27;48008;-71
2022/06/20 01:25:55;;;;;;;;;29.50;28.50;;;;;20.01;65.24;100771.94;5101087;27;45997;-72
2022/06/20 01:28:26;;;;;;;;;30.75;29.50;;;;;19.90;65.56;100751.06;5091059;27;45440;-71
2022/06/20 01:30:51;;;;;;;;;25.25;24.50;;;;;19.88;65.76;100743.03;5103216;27;45399;-71
2022/06/20 01:33:20;;;;;;;;;28.00;24.50;;;;;19.86;65.55;100733.28;5103132;27;46231;-71
2022/06/20 01:38:31;;;;;;;;;26.25;26.25;;;;;19.65;65.74;100695.03;5098430;27;45430;-71
2022/06/20 01:43:41;;;;;;;;;31.50;29.25;;;;;19.47;66.58;100665.56;5102816;27;45814;-71
2022/06/20 01:46:09;;;;;;;;;33.50;28.25;;;;;19.49;66.88;100657.34;5102262;27;45404;-71
2022/06/20 01:48:42;;;;;;;;;28.50;25.75;;;;;19.48;67.04;100640.25;5101658;27;45462;-71
2022/06/20 01:51:19;;;;;;;;;24.00;22.75;;;;;19.47;67.07;100627.69;5099837;27;45449;-71
2022/06/20 01:53:45;;;;;;;;;25.75;24.25;;;;;19.38;66.64;100593.16;5102663;27;45449;-71
2022/06/20 01:56:11;;;;;;;;;30.50;27.25;;;;;19.31;66.98;100553.97;5103198;27;45517;-70
2022/06/20 01:58:49;;;;;;;;;29.00;26.75;;;;;19.33;66.98;100506.88;5103020;27;45266;-70
2022/06/20 02:01:15;;;;;;;;;30.75;28.25;;;;;19.23;66.91;100425.50;5103210;27;45272;-70
2022/06/20 02:03:43;;;;;;;;;30.00;29.00;;;;;19.00;68.12;100347.91;5099884;27;46156;-68
2022/06/20 02:06:12;;;;;;;;;27.50;24.75;;;;;19.04;67.75;100379.13;5096300;27;45432;-71
2022/06/20 02:08:41;;;;;;;;;26.75;25.75;;;;;18.90;68.50;100382.00;5103103;27;45321;-69
2022/06/20 02:11:12;;;;;;;;;28.25;28.00;;;;;18.96;68.40;100400.47;5101969;27;45470;-69
2022/06/20 02:13:46;;;;;;;;;31.75;28.00;;;;;18.88;68.51;100410.00;5089873;27;47272;-70
2022/06/20 02:16:14;;;;;;;;;24.00;22.75;;;;;18.95;69.13;100432.06;5099498;27;45423;-70
2022/06/20 02:18:43;;;;;;;;;24.75;24.75;;;;;18.94;68.75;100433.03;5103060;27;45238;-70
2022/06/20 02:21:21;;;;;;;;;23.00;23.00;;;;;18.93;69.09;100431.31;5101900;27;45480;-70
2022/06/20 02:23:51;;;;;;;;;25.00;23.75;;;;;19.07;68.88;100462.78;5102397;27;46433;-70
2022/06/20 02:26:19;;;;;;;;;27.00;26.50;;;;;19.12;68.64;100493.06;5102639;27;45611;-69
2022/06/20 02:28:47;;;;;;;;;26.25;24.50;;;;;19.14;68.72;100506.47;5102709;27;45341;-69
2022/06/20 02:31:13;;;;;;;;;26.50;24.25;;;;;19.23;68.43;100535.59;5098866;27;45361;-69
2022/06/20 02:33:38;;;;;;;;;31.75;27.75;;;;;19.18;68.31;100535.91;5092643;27;45323;-70
2022/06/20 02:36:06;;;;;;;;;28.50;27.00;;;;;19.30;68.54;100558.53;5102557;27;45201;-70
2022/06/20 02:38:32;;;;;;;;;27.00;22.75;;;;;19.41;68.23;100580.28;5098539;27;45322;-70
2022/06/20 02:40:58;;;;;;;;;26.25;23.75;;;;;19.43;68.38;100593.69;5099887;27;45527;-70
2022/06/20 02:43:38;;;;;;;;;26.75;24.50;;;;;19.43;68.33;100596.41;5102172;27;46208;-70
2022/06/20 02:46:08;;;;;;;;;24.25;23.50;;;;;19.50;67.91;100604.94;5100321;27;45498;-70
2022/06/20 02:48:35;;;;;;;;;28.75;26.75;;;;;19.60;68.07;100608.72;5102392;27;45338;-69
2022/06/20 02:51:06;;;;;;;;;24.25;24.00;;;;;19.50;67.95;100591.41;5099688;27;46040;-68
2022/06/20 02:53:49;;;;;;;;;22.75;22.00;;;;;19.61;67.74;100624.84;5101556;27;45938;-69
2022/06/20 02:56:18;;;;;;;;;28.00;24.50;;;;;19.76;68.00;100651.81;5102571;27;45317;-69
2022/06/20 02:58:51;;;;;;;;;24.25;22.75;;;;;19.73;67.82;100628.50;5102081;27;45381;-69
2022/06/20 03:01:35;;;;;;;;;25.50;23.75;;;;;19.84;68.45;100640.44;5102104;27;45466;-70
2022/06/20 03:04:01;;;;;;;;;25.50;23.00;;;;;19.79;68.38;100633.50;5105292;27;48499;-70
2022/06/20 03:06:32;;;;;;;;;21.50;21.50;;;;;19.91;68.58;100644.41;5102191;27;45536;-69
2022/06/20 03:08:58;;;;;;;;;25.50;23.75;;;;;19.80;68.18;100637.94;5101934;27;45390;-69
2022/06/20 03:11:26;;;;;;;;;27.75;25.50;;;;;19.81;67.70;100641.50;5102170;27;45313;-69
2022/06/20 03:13:53;;;;;;;;;24.00;23.25;;;;;19.97;67.99;100673.78;5086015;27;47094;-68
2022/06/20 03:16:21;;;;;;;;;23.75;23.75;;;;;19.92;68.24;100671.41;5101596;27;45658;-69
2022/06/20 03:18:49;;;;;;;;;30.75;29.50;;;;;19.96;68.20;100681.03;5102192;27;45392;-69
2022/06/20 03:21:21;;;;;;;;;33.75;31.50;;;;;20.00;68.28;100703.34;5101215;27;45389;-69
2022/06/20 03:23:46;;;;;;;;;30.25;27.75;;;;;19.89;67.84;100693.28;5088265;27;46086;-69
2022/06/20 03:26:16;;;;;;;;;31.00;28.00;;;;;20.03;67.84;100707.66;5099236;27;45435;-69
2022/06/20 03:28:42;;;;;;;;;25.50;24.50;;;;;19.98;67.44;100711.59;5101677;27;45296;-68
2022/06/20 03:31:10;;;;;;;;;32.00;30.25;;;;;20.02;67.62;100711.38;5101217;27;45375;-69
2022/06/20 03:33:36;;;;;;;;;27.25;25.00;;;;;20.06;67.57;100727.28;5099170;27;47522;-69
2022/06/20 03:36:13;;;;;;;;;30.00;29.50;;;;;20.02;67.36;100723.06;5101375;27;45322;-68
2022/06/20 03:38:42;;;;;;;;;30.75;29.00;;;;;19.97;67.36;100727.97;5094634;27;45976;-69
2022/06/20 03:41:11;;;;;;;;;28.50;28.50;;;;;20.03;67.08;100742.91;5099828;27;45415;-69
2022/06/20 03:43:39;;;;;;;;;28.00;26.75;;;;;20.04;67.12;100745.50;5100271;27;46227;-69
2022/06/20 03:46:14;;;;;;;;;25.75;23.00;;;;;20.04;67.43;100748.22;5100949;27;45462;-68
2022/06/20 03:48:48;;;;;;;;;27.00;24.50;;;;;19.97;66.78;100734.22;5099776;27;45535;-70
2022/06/20 03:51:20;;;;;;;;;27.50;24.00;;;;;20.03;67.45;100738.38;5101247;27;45263;-70
2022/06/20 03:53:55;;;;;;;;;27.25;23.25;;;;;19.93;66.92;100731.84;5099765;27;46002;-69
2022/06/20 03:56:28;;;;;;;;;27.50;25.50;;;;;20.06;66.96;100742.69;5101308;27;45349;-69
2022/06/20 03:58:59;;;;;;;;;29.25;26.00;;;;;20.02;66.97;100733.06;5100499;27;45544;-69
2022/06/20 04:01:29;;;;;;;;;22.50;22.50;;;;;20.02;67.01;100747.47;5100295;27;46784;-70
2022/06/20 04:03:59;;;;;;;;;27.75;24.00;;;;;20.00;66.47;100749.41;5087611;27;46564;-69
2022/06/20 04:06:31;;;;;;;;;24.75;23.75;;;;;20.01;66.55;100763.81;5092796;27;45507;-69
2022/06/20 04:12:21;;;;;;;;;34.75;31.50;;;;;19.88;65.74;100780.97;5100838;27;45266;-69
2022/06/20 04:14:55;;;;;;;;;26.75;23.00;;;;;19.75;65.58;100785.50;5098402;27;45572;-70
2022/06/20 04:20:31;;;;;;;;;27.00;24.25;;;;;19.77;66.54;100789.81;5094494;27;45499;-69
2022/06/20 04:23:01;;;;;;;;;28.75;25.75;;;;;19.77;66.43;100783.56;5099853;27;45692;-69
2022/06/20 04:25:37;;;;;;;;;29.25;25.75;;;;;19.82;65.82;100789.50;5100516;27;45370;-69
2022/06/20 04:28:32;;;;;;;;;23.00;23.00;;;;;19.73;65.33;100792.81;5098534;27;45326;-69
2022/06/20 04:31:04;;;;;;;;;24.75;23.75;;;;;19.60;65.66;100779.28;5095145;27;45313;-68
2022/06/20 04:33:38;;;;;;;;;23.25;23.25;;;;;19.63;65.78;100792.63;5091259;27;45397;-69
2022/06/20 04:36:58;;;;;;;;;26.25;24.00;;;;;19.69;65.76;100807.56;5097212;27;45444;-69
2022/06/20 04:39:39;;;;;;;;;33.50;29.75;;;;;19.70;65.47;100798.47;5077605;28;45362;-69
2022/06/20 04:42:23;;;;;;;;;28.25;26.50;;;;;19.66;65.27;100808.63;5097799;27;45315;-70
2022/06/20 04:45:00;;;;;;;;;27.50;25.75;;;;;19.57;65.49;100812.84;5087567;27;46095;-70
2022/06/20 04:47:46;;;;;;;;;29.50;24.75;;;;;19.57;65.71;100826.38;5095667;27;47449;-69
2022/06/20 04:50:22;;;;;;;;;27.75;23.75;;;;;19.64;65.28;100837.66;5093935;27;45431;-70
2022/06/20 04:52:51;;;;;;;;;28.25;26.50;;;;;19.52;65.46;100811.44;5094933;27;45309;-69
2022/06/20 04:55:22;;;;;;;;;38.50;34.00;;;;;19.59;65.47;100837.13;5095121;27;45368;-69
2022/06/20 04:57:49;;;;;;;;;29.00;27.00;;;;;19.55;65.08;100839.16;5090821;27;46271;-70
2022/06/20 05:00:29;;;;;;;;;35.50;31.50;;;;;19.55;65.29;100841.03;5095208;27;45529;-69
2022/06/20 05:02:57;;;;;;;;;25.25;23.75;;;;;19.42;65.31;100833.72;5095630;27;45511;-68
2022/06/20 05:05:27;;;;;;;;;29.50;26.75;;;;;19.49;64.88;100858.53;5090794;27;45461;-68
2022/06/20 05:07:53;;;;;;;;;23.25;23.25;;;;;19.46;65.35;100856.03;5100024;27;45405;-67
2022/06/20 05:10:29;;;;;;;;;24.25;24.25;;;;;19.49;65.51;100869.34;5099847;27;45459;-68
2022/06/20 05:13:00;;;;;;;;;27.25;26.50;;;;;19.47;65.15;100870.44;5098998;27;45499;-68
2022/06/20 05:15:38;;;;;;;;;33.75;28.25;;;;;19.41;65.45;100859.06;5099656;27;45349;-68
2022/06/20 05:18:43;;;;;;;;;25.00;22.25;;;;;19.39;65.33;100860.13;5097955;27;46498;-68
2022/06/20 05:21:27;;;;;;;;;31.00;29.75;;;;;19.35;65.08;100866.72;5101678;27;46151;-68
2022/06/20 05:23:57;;;;;;;;;24.25;24.00;;;;;19.27;64.92;100866.38;5099856;27;45404;-68
2022/06/20 05:26:38;;;;;;;;;24.75;24.75;;;;;19.09;65.21;100847.69;5097032;27;45579;-68
2022/06/20 05:29:09;;;;;;;;;26.50;25.25;;;;;19.17;65.25;100861.56;5098566;27;45362;-68
2022/06/20 05:31:39;;;;;;;;;29.50;27.75;;;;;19.11;65.10;100864.69;5099160;27;45258;-68
2022/06/20 05:34:27;;;;;;;;;28.75;25.75;;;;;19.09;65.22;100866.63;5098677;27;45753;-68
2022/06/20 05:36:59;;;;;;;;;23.50;22.50;;;;;18.98;65.98;100850.25;5097066;27;45230;-68
2022/06/20 05:39:32;;;;;;;;;30.50;28.00;;;;;19.03;66.37;100865.19;5091672;27;46099;-68
2022/06/20 05:41:59;;;;;;;;;29.75;26.50;;;;;19.13;65.97;100886.22;5093852;27;45386;-68
2022/06/20 05:44:24;;;;;;;;;26.00;24.50;;;;;19.03;66.08;100885.97;5099199;27;45327;-69
2022/06/20 05:47:05;;;;;;;;;28.00;27.00;;;;;19.04;65.47;100893.09;5102422;27;45309;-68
2022/06/20 05:49:43;;;;;;;;;23.00;22.25;;;;;18.85;65.69;100877.22;5099231;27;47072;-69
2022/06/20 05:52:15;;;;;;;;;23.75;23.25;;;;;19.03;65.72;100907.63;5099516;27;45609;-68
2022/06/20 05:54:46;;;;;;;;;26.25;26.25;;;;;19.09;65.98;100912.63;5099832;27;45457;-69
2022/06/20 05:57:15;;;;;;;;;25.00;21.25;;;;;19.04;65.29;100910.22;5100149;27;46968;-68
2022/06/20 05:59:48;;;;;;;;;25.75;24.00;;;;;18.93;65.75;100907.34;5100618;27;46758;-69
2022/06/20 06:02:18;;;;;;;;;22.00;22.00;;;;;19.06;65.78;100920.91;5094175;27;45333;-68
2022/06/20 06:04:51;;;;;;;;;25.25;21.50;;;;;19.03;65.78;100924.72;5094500;27;45396;-67
2022/06/20 06:07:28;;;;;;;;;22.25;20.25;;;;;18.93;66.00;100904.66;5096936;27;45358;-67
2022/06/20 06:09:57;;;;;;;;;24.00;20.25;;;;;19.03;65.36;100932.84;5101077;27;47377;-67
2022/06/20 06:12:33;;;;;;;;;26.75;24.50;;;;;18.94;65.86;100924.44;5100874;27;45371;-67
2022/06/20 06:15:36;;;;;;;;;23.50;21.75;;;;;19.06;65.96;100940.75;5095454;27;45464;-67
2022/06/20 06:18:06;;;;;;;;;20.50;19.25;;;;;19.02;65.35;100932.94;5094931;27;45424;-67
2022/06/20 06:20:32;;;;;;;;;21.00;19.25;;;;;19.01;65.04;100942.00;5098315;27;48047;-67
2022/06/20 06:23:04;;;;;;;;;24.50;21.25;;;;;18.99;65.62;100942.09;5102279;27;45655;-67
2022/06/20 06:25:34;;;;;;;;;29.50;25.25;;;;;19.02;65.04;100950.03;5102458;27;45423;-67
2022/06/20 06:28:05;;;;;;;;;21.75;21.25;;;;;18.89;64.79;100938.25;5099912;27;45620;-67
2022/06/20 06:30:46;;;;;;;;;18.25;17.25;;;;;18.84;65.30;100941.28;5096746;27;46863;-67
2022/06/20 06:33:23;;;;;;;;;22.50;19.75;;;;;18.92;64.85;100951.59;5095182;27;45251;-67
2022/06/20 06:35:56;;;;;;;;;20.25;17.25;;;;;18.93;65.12;100953.34;5099887;27;45412;-68
2022/06/20 06:38:32;;;;;;;;;21.00;18.25;;;;;19.00;65.20;100970.03;5097180;27;45523;-67
2022/06/20 06:41:00;;;;;;;;;22.25;19.25;;;;;18.95;64.91;100974.88;5095943;27;45269;-68
2022/06/20 06:43:37;;;;;;;;;17.75;17.75;;;;;18.94;64.97;100965.00;5097403;27;45427;-67
2022/06/20 06:46:06;;;;;;;;;15.50;15.25;;;;;18.87;65.05;100968.09;5092746;27;45457;-66
2022/06/20 06:48:43;;;;;;;;;16.25;16.25;;;;;18.84;64.91;100970.13;5092167;27;45467;-66
2022/06/20 06:51:15;;;;;;;;;20.00;18.75;;;;;18.83;64.81;100971.13;5093181;27;45333;-66
2022/06/20 06:53:58;;;;;;;;;21.00;17.25;;;;;18.77;64.68;100988.53;5093616;27;45551;-66
2022/06/20 06:56:34;;;;;;;;;17.25;17.25;;;;;18.77;64.68;100983.13;5096070;27;45540;-66
2022/06/20 06:59:29;;;;;;;;;19.75;15.00;;;;;18.82;64.66;100991.84;5098139;27;45587;-66
2022/06/20 07:02:00;;;;;;;;;19.00;17.50;;;;;18.71;65.02;100983.56;5095125;27;45565;-66
2022/06/20 07:04:40;;;;;;;;;22.25;17.75;;;;;18.76;64.85;100999.47;5098837;27;46887;-67
2022/06/20 07:07:14;;;;;;;;;23.25;22.00;;;;;18.66;64.56;100999.16;5099524;27;45493;-67
2022/06/20 07:09:51;;;;;;;;;18.50;18.25;;;;;18.69;64.28;101018.78;5097734;27;45665;-67
2022/06/20 07:12:16;;;;;;;;;18.50;17.75;;;;;18.61;64.90;101022.91;5090673;27;46312;-66
2022/06/20 07:14:44;;;;;;;;;20.33;19.00;;;;;18.58;65.18;101015.03;5100887;27;45460;-66
2022/06/20 07:17:22;;;;;;;;;15.75;15.75;;;;;18.60;65.69;101029.31;5099430;27;45392;-66
2022/06/20 07:19:51;;;;;;;;;18.50;14.50;;;;;18.64;65.57;101028.13;5097528;27;45584;-66
2022/06/20 07:22:20;;;;;;;;;15.50;15.00;;;;;18.68;64.98;101021.59;5097879;27;46119;-66
2022/06/20 07:24:46;;;;;;;;;18.25;15.25;;;;;18.64;65.43;101014.63;5100814;27;45678;-66
2022/06/20 07:27:15;;;;;;;;;20.75;19.50;;;;;18.71;64.54;101026.81;5100785;27;45333;-67
2022/06/20 07:29:46;;;;;;;;;18.50;18.25;;;;;18.64;64.77;101029.03;5100795;27;45437;-67
2022/06/20 07:32:16;;;;;;;;;21.00;17.75;;;;;18.54;64.76;101027.81;5100241;27;45367;-66
2022/06/20 07:34:49;;;;;;;;;20.00;16.75;;;;;18.49;65.26;101035.34;5100983;27;45563;-66
2022/06/20 07:37:23;;;;;;;;;21.50;19.25;;;;;18.41;64.85;101026.84;5100501;27;45361;-66
2022/06/20 07:40:01;;;;;;;;;18.00;16.50;;;;;18.39;65.74;101039.56;5099594;27;45713;-66
2022/06/20 07:42:35;;;;;;;;;19.75;17.75;;;;;18.39;65.02;101048.53;5099946;27;45469;-66
2022/06/20 07:45:09;;;;;;;;;19.75;19.00;;;;;18.33;65.51;101041.69;5100184;27;45542;-66
2022/06/20 07:47:53;;;;;;;;;16.25;16.00;;;;;18.38;64.90;101049.53;5097267;27;45434;-67
2022/06/20 07:50:30;;;;;;;;;23.00;20.50;;;;;18.38;65.88;101040.56;5099408;27;45338;-66
2022/06/20 07:53:09;;;;;;;;;21.25;19.75;;;;;18.32;65.36;101039.06;5089198;27;45468;-66
2022/06/20 07:55:38;;;;;;;;;21.00;20.00;;;;;18.39;64.92;101055.78;5095463;27;45625;-68
2022/06/20 07:58:09;;;;;;;;;22.00;19.75;;;;;18.44;65.69;101059.97;5094816;27;45400;-67
2022/06/20 08:00:45;;;;;;;;;24.00;19.25;;;;;18.44;64.88;101057.28;5097880;27;45382;-67
2022/06/20 08:03:22;;;;;;;;;19.25;18.50;;;;;18.39;64.78;101056.66;5095609;27;45593;-66
2022/06/20 08:05:58;;;;;;;;;17.00;17.00;;;;;18.45;64.59;101061.69;5093519;27;45533;-66
2022/06/20 08:08:40;;;;;;;;;19.75;17.25;;;;;18.39;65.25;101050.38;5091245;27;45626;-66
2022/06/20 08:11:11;;;;;;;;;22.75;19.50;;;;;18.39;64.65;101064.75;5088507;27;45579;-66
2022/06/20 08:13:48;;;;;;;;;20.50;20.00;;;;;18.39;65.07;101067.47;5091387;27;46170;-66
2022/06/20 08:16:19;;;;;;;;;14.25;14.25;;;;;18.42;65.18;101066.44;5092038;27;45694;-67
2022/06/20 08:18:44;;;;;;;;;17.25;16.25;;;;;18.40;65.27;101063.81;5096879;27;47148;-66
2022/06/20 08:21:12;;;;;;;;;22.25;19.25;;;;;18.42;65.03;101070.00;5096577;27;45643;-67
2022/06/20 08:24:07;;;;;;;;;19.25;16.25;;;;;18.47;65.41;101069.72;5098695;27;46366;-67
2022/06/20 08:26:42;;;;;;;;;16.50;14.75;;;;;18.52;65.10;101062.19;5098925;27;45161;-66
2022/06/20 08:29:15;;;;;;;;;18.75;18.50;;;;;18.56;65.07;101052.06;5100597;27;45270;-66
2022/06/20 08:31:47;;;;;;;;;23.50;20.00;;;;;18.59;64.78;101044.63;5097550;27;45461;-66
2022/06/20 08:34:32;;;;;;;;;17.75;16.50;;;;;18.64;64.58;101050.66;5098370;27;46146;-66
2022/06/20 08:37:04;;;;;;;;;12.75;12.25;;;;;18.70;65.21;101052.09;5087844;27;45340;-66
2022/06/20 08:39:42;;;;;;;;;21.50;18.25;;;;;18.72;65.00;101043.91;5090396;27;45389;-66
2022/06/20 08:42:16;;;;;;;;;18.00;16.75;;;;;18.78;64.81;101054.34;5090645;27;45536;-66
2022/06/20 08:45:17;;;;;;;;;23.75;21.25;;;;;18.80;64.24;101055.13;5099754;27;45492;-67
2022/06/20 08:48:02;;;;;;;;;22.75;20.50;;;;;18.73;64.14;101068.16;5080676;27;45370;-68
2022/06/20 08:50:52;;;;;;;;;22.50;22.50;;;;;18.60;64.21;101069.84;5089216;27;45787;-70
2022/06/20 08:53:50;;;;;;;;;22.50;21.00;;;;;18.46;64.35;101084.19;5082061;27;45676;-70
2022/06/20 08:56:30;;;;;;;;;21.25;20.25;;;;;18.39;64.33;101085.53;5098560;27;45502;-70
2022/06/20 08:59:34;;;;;;;;;26.00;24.00;;;;;18.32;64.36;101085.88;5098271;27;45307;-69
2022/06/20 09:02:04;;;;;;;;;23.50;22.00;;;;;18.29;64.70;101094.19;5082492;27;46717;-70
2022/06/20 09:04:30;;;;;;;;;27.00;23.00;;;;;18.36;65.02;101104.63;5090460;27;45836;-70
2022/06/20 09:07:20;;;;;;;;;24.00;22.00;;;;;18.41;64.32;101113.31;5097003;27;45344;-71
2022/06/20 09:10:00;;;;;;;;;25.00;22.00;;;;;18.40;64.31;101114.31;5085896;27;45500;-70
2022/06/20 09:12:43;;;;;;;;;23.00;21.50;;;;;18.37;64.32;101106.38;5098132;27;45437;-69
2022/06/20 09:16:03;;;;;;;;;23.00;21.50;;;;;18.38;64.56;101111.69;5096237;27;45430;-70
2022/06/20 09:19:10;;;;;;;;;15.50;14.75;;;;;18.38;64.48;101106.28;5024521;28;45596;-69
2022/06/20 09:22:05;;;;;;;;;21.00;21.00;;;;;18.38;64.55;101108.97;5093932;27;45522;-70
2022/06/20 09:25:02;;;;;;;;;34.00;24.75;;;;;18.26;64.65;101082.66;5098484;27;45504;-70
2022/06/20 09:27:55;;;;;;;;;24.50;24.25;;;;;18.35;64.94;101114.56;5100616;27;45976;-70
2022/06/20 09:30:51;;;;;;;;;20.75;20.75;;;;;18.35;64.74;101114.56;5102529;27;45464;-69
2022/06/20 09:33:44;;;;;;;;;23.50;23.50;;;;;18.36;64.20;101121.72;5092421;27;46021;-70
2022/06/20 09:36:21;;;;;;;;;23.25;22.50;;;;;18.41;64.37;101129.53;5098615;27;45337;-70
2022/06/20 09:38:49;;;;;;;;;22.50;21.50;;;;;18.42;64.63;101134.84;5096739;27;45503;-69
2022/06/20 09:41:50;;;;;;;;;30.00;26.50;;;;;18.34;64.39;101131.72;5099848;27;46110;-70
2022/06/20 09:44:20;;;;;;;;;24.00;21.25;;;;;18.36;64.97;101131.66;5094496;27;45482;-70
2022/06/20 09:47:10;;;;;;;;;25.00;23.50;;;;;18.39;64.86;101135.03;5102894;27;45350;-66
2022/06/20 09:50:00;;;;;;;;;26.00;18.50;;;;;18.43;64.82;101123.09;5090738;27;45320;-67
2022/06/20 09:52:42;;;;;;;;;24.50;20.75;;;;;18.49;64.93;101140.78;5100662;27;46381;-66
2022/06/20 09:55:58;;;;;;;;;20.25;18.75;;;;;18.56;64.88;101133.16;5101671;27;45222;-66
2022/06/20 09:58:38;;;;;;;;;23.25;20.50;;;;;18.53;64.49;101128.81;5088393;27;45365;-66
2022/06/20 10:01:18;;;;;;;;;20.25;18.25;;;;;18.58;64.91;101134.84;5097759;27;45345;-65
2022/06/20 10:04:11;;;;;;;;;23.75;22.00;;;;;18.65;64.47;101146.16;5094244;27;45390;-67
2022/06/20 10:06:55;;;;;;;;;31.25;27.00;;;;;18.61;64.03;101133.75;5102436;27;45340;-68
2022/06/20 10:09:23;;;;;;;;;23.00;20.25;;;;;18.66;64.31;101148.75;5095753;27;45259;-67
2022/06/20 10:12:07;;;;;;;;;20.75;17.00;;;;;18.68;64.57;101141.41;5100855;27;45496;-67
2022/06/20 10:14:55;;;;;;;;;25.00;24.75;;;;;18.68;64.36;101141.41;5095068;27;45528;-66
2022/06/20 10:17:42;;;;;;;;;24.75;23.25;;;;;18.69;64.31;101131.47;5097835;27;45670;-66
2022/06/20 10:20:45;;;;;;;;;23.00;21.75;;;;;18.75;64.69;101141.91;5097561;27;45342;-66
2022/06/20 10:23:22;;;;;;;;;30.25;26.25;;;;;18.81;64.20;101146.06;5092518;27;45821;-67
2022/06/20 10:26:41;;;;;;;;;26.50;26.50;;;;;18.84;64.04;101140.53;5099035;27;46570;-66
2022/06/20 10:29:24;;;;;;;;;33.50;31.50;;;;;18.91;64.46;101146.44;5093430;27;45674;-67
2022/06/20 10:31:52;;;;;;;;;25.00;25.00;;;;;18.98;64.27;101145.13;5093146;27;45397;-67
2022/06/20 10:34:26;;;;;;;;;30.50;27.00;;;;;19.01;63.86;101153.00;5101609;27;45329;-67
2022/06/20 10:37:06;;;;;;;;;33.00;30.75;;;;;19.00;63.54;101146.75;5100824;27;47178;-67
2022/06/20 10:39:48;;;;;;;;;30.75;29.00;;;;;18.96;63.94;101150.63;5101324;27;45264;-66
2022/06/20 10:42:30;;;;;;;;;32.75;31.00;;;;;18.95;64.35;101158.81;5101979;27;45409;-67
2022/06/20 10:45:08;;;;;;;;;34.00;29.50;;;;;18.95;63.76;101169.63;5097560;27;45259;-66
2022/06/20 10:48:29;;;;;;;;;31.75;30.00;;;;;18.92;64.37;101169.81;5101266;27;46216;-67
2022/06/20 10:51:06;;;;;;;;;34.25;30.00;;;;;18.94;63.86;101170.59;5047975;28;45493;-67
2022/06/20 10:53:43;;;;;;;;;29.50;27.75;;;;;18.94;64.09;101174.16;5100712;27;45558;-67
2022/06/20 10:56:23;;;;;;;;;34.75;31.50;;;;;18.92;64.32;101169.81;5102282;27;45323;-67
2022/06/20 10:59:04;;;;;;;;;30.00;28.75;;;;;19.01;64.00;101177.34;5101834;27;45261;-67
2022/06/20 11:01:44;;;;;;;;;27.50;25.75;;;;;19.00;63.89;101173.78;5101417;27;45336;-67
2022/06/20 11:04:13;;;;;;;;;29.50;28.00;;;;;19.05;63.89;101173.53;5096702;27;45456;-67
2022/06/20 11:07:16;;;;;;;;;32.75;31.50;;;;;19.07;63.73;101175.16;5097562;27;45362;-67
2022/06/20 11:09:56;;;;;;;;;28.75;28.00;;;;;19.06;64.12;101173.44;5052227;28;45669;-67
2022/06/20 11:12:42;;;;;;;;;28.25;27.75;;;;;19.12;63.75;101177.59;5058316;28;45411;-67
2022/06/20 11:15:31;;;;;;;;;30.50;29.75;;;;;19.19;64.54;101176.22;5070195;27;45538;-68
2022/06/20 11:18:01;;;;;;;;;32.00;28.00;;;;;19.22;63.86;101176.03;5096918;27;45344;-68
2022/06/20 11:20:42;;;;;;;;;30.75;26.75;;;;;19.30;63.90;101175.56;5101245;27;45537;-68
2022/06/20 11:23:18;;;;;;;;;28.75;26.25;;;;;19.33;63.23;101175.41;5098473;27;45665;-68
2022/06/20 11:25:56;;;;;;;;;28.00;24.00;;;;;19.24;63.65;101171.44;5098873;27;45318;-68
2022/06/20 11:28:30;;;;;;;;;32.75;29.00;;;;;19.36;64.16;101186.03;5098091;27;45369;-68
2022/06/20 11:31:07;;;;;;;;;30.50;26.75;;;;;19.39;63.25;101183.09;5093898;27;47008;-68
2022/06/20 11:34:04;;;;;;;;;33.25;30.50;;;;;19.43;63.06;101178.41;5097157;27;45519;-69
2022/06/20 11:37:12;;;;;;;;;28.25;26.75;;;;;19.44;63.19;101174.72;5088150;27;45547;-69
2022/06/20 11:39:56;;;;;;;;;22.25;21.00;;;;;19.50;63.45;101177.03;5093048;27;45620;-69
2022/06/20 11:42:21;;;;;;;;;22.50;21.75;;;;;19.59;63.13;101186.41;5098784;27;45289;-69
2022/06/20 11:45:21;;;;;;;;;25.25;24.25;;;;;19.63;63.18;101187.97;5096305;27;45230;-68
2022/06/20 11:48:06;;;;;;;;;25.75;25.25;;;;;19.71;63.13;101188.34;5093221;27;45391;-68
2022/06/20 11:50:49;;;;;;;;;20.50;16.75;;;;;19.74;63.17;101168.31;5096099;27;45467;-68
2022/06/20 11:53:46;;;;;;;;;28.00;24.25;;;;;19.79;63.26;101168.91;5090746;27;48112;-67
2022/06/20 11:56:44;;;;;;;;;22.25;19.25;;;;;19.82;62.77;101168.72;5098682;27;45652;-67
2022/06/20 11:59:23;;;;;;;;;21.25;21.25;;;;;19.86;62.64;101167.53;5085211;27;45544;-68
2022/06/20 12:02:04;;;;;;;;;25.00;21.75;;;;;19.91;63.37;101165.44;5099529;27;45472;-68
2022/06/20 12:04:38;;;;;;;;;23.25;23.25;;;;;19.97;62.79;101151.47;5098424;27;45546;-67